Time;durP1;ratioP1;P1;durP2;ratioP2;P2;SDS_P1;SDS_P2;PMS_P1;PMS_P2;Temp;Humidity;BMP_temperature;BMP_pressure;BME280_temperature;BME280_humidity;BME280_pressure;Samples;Min_cycle;Max_cycle;Signal;HPM_P1;HPM_P2
2023/12/03 05:01:59;;;;;;;9.95;6.47;;;-1.90;99.90;;;;;;5193206;23;20308;-72
2023/12/03 05:04:26;;;;;;;4.75;4.32;;;-1.90;99.90;;;;;;4936087;29;20224;-72
2023/12/03 05:06:53;;;;;;;6.00;5.40;;;-2.00;99.90;;;;;;4933297;29;20210;-73
2023/12/03 05:09:20;;;;;;;5.57;5.07;;;-2.00;99.90;;;;;;4931839;29;20214;-72
2023/12/03 05:11:48;;;;;;;5.97;5.40;;;-2.00;99.90;;;;;;4918373;29;20238;-72
2023/12/03 05:14:15;;;;;;;8.60;4.60;;;-2.10;99.90;;;;;;4912774;29;20238;-72
2023/12/03 05:16:41;;;;;;;9.68;5.13;;;-2.00;99.90;;;;;;4915945;29;20206;-72
2023/12/03 05:19:10;;;;;;;4.78;4.38;;;-2.10;99.90;;;;;;4917515;29;20225;-72
2023/12/03 05:21:36;;;;;;;4.80;4.35;;;-2.10;99.90;;;;;;4915861;29;20234;-72
2023/12/03 05:24:03;;;;;;;7.18;4.95;;;-2.00;99.90;;;;;;4918467;29;20203;-72
2023/12/03 05:26:30;;;;;;;5.78;4.93;;;-2.10;99.90;;;;;;4917963;29;20215;-72
2023/12/03 05:28:56;;;;;;;8.40;5.53;;;-2.10;99.90;;;;;;4916868;29;20637;-72
2023/12/03 05:31:23;;;;;;;8.50;6.68;;;-2.10;99.90;;;;;;4915606;29;20282;-72
2023/12/03 05:33:50;;;;;;;9.35;5.20;;;-2.10;99.90;;;;;;4916860;29;20226;-72
2023/12/03 05:36:22;;;;;;;8.20;5.75;;;-2.00;99.90;;;;;;4916727;29;20211;-72
2023/12/03 05:38:49;;;;;;;6.65;5.00;;;-2.00;99.90;;;;;;4909191;29;20281;-72
2023/12/03 05:41:17;;;;;;;9.77;5.32;;;-2.00;99.90;;;;;;4916347;29;20223;-72
2023/12/03 05:43:43;;;;;;;11.85;7.53;;;-1.90;99.90;;;;;;4915087;29;20234;-71
2023/12/03 05:46:10;;;;;;;13.70;5.47;;;-1.90;99.90;;;;;;4916044;29;20203;-71
2023/12/03 05:48:37;;;;;;;7.15;6.20;;;-1.80;99.90;;;;;;4914013;29;20211;-71
2023/12/03 05:51:09;;;;;;;7.75;6.05;;;-1.80;99.90;;;;;;4915720;29;20226;-71
2023/12/03 05:53:37;;;;;;;12.40;7.45;;;-1.70;99.90;;;;;;4916788;29;20265;-71
2023/12/03 05:56:04;;;;;;;7.35;6.57;;;-1.70;99.90;;;;;;4916195;29;20210;-71
2023/12/03 05:58:31;;;;;;;8.63;5.28;;;-1.70;99.90;;;;;;4914317;29;20215;-72
2023/12/03 06:00:58;;;;;;;7.03;5.88;;;-1.70;99.90;;;;;;4910176;29;20246;-72
2023/12/03 06:03:25;;;;;;;10.07;6.82;;;-1.60;99.90;;;;;;4915002;29;20243;-72
2023/12/03 06:05:51;;;;;;;8.65;5.88;;;-1.60;99.90;;;;;;4914685;29;20215;-72
2023/12/03 06:08:18;;;;;;;9.55;6.75;;;-1.50;99.90;;;;;;4912162;29;20217;-72
2023/12/03 06:10:46;;;;;;;10.70;8.90;;;-1.50;99.90;;;;;;4913335;29;20904;-72
2023/12/03 06:13:13;;;;;;;10.10;6.15;;;-1.40;99.90;;;;;;4913251;29;20206;-73
2023/12/03 06:15:39;;;;;;;10.65;6.82;;;-1.40;99.90;;;;;;4913458;29;20233;-72
2023/12/03 06:18:06;;;;;;;4.82;4.45;;;-1.30;99.90;;;;;;4916026;29;20575;-72
2023/12/03 06:20:33;;;;;;;13.93;8.02;;;-1.30;99.90;;;;;;4915162;29;20227;-72
2023/12/03 06:22:59;;;;;;;16.77;6.18;;;-1.20;99.90;;;;;;4913957;29;20700;-72
2023/12/03 06:25:26;;;;;;;8.60;7.50;;;-1.20;99.90;;;;;;4911831;29;20280;-72
2023/12/03 06:27:54;;;;;;;10.25;5.15;;;-1.20;99.90;;;;;;4916069;29;20585;-71
2023/12/03 06:30:21;;;;;;;14.35;7.95;;;-1.20;99.90;;;;;;4914859;29;20624;-72
2023/12/03 06:32:48;;;;;;;11.90;8.73;;;-1.20;99.90;;;;;;4913857;29;20233;-71
2023/12/03 06:35:15;;;;;;;8.20;6.80;;;-1.10;99.90;;;;;;4908947;29;20864;-71
2023/12/03 06:37:43;;;;;;;10.25;7.55;;;-1.10;99.90;;;;;;4910302;29;20306;-72
2023/12/03 06:40:11;;;;;;;5.45;4.95;;;-1.10;99.90;;;;;;4907661;29;20226;-71
2023/12/03 06:42:38;;;;;;;10.23;6.90;;;-1.10;99.90;;;;;;4913383;29;20202;-72
2023/12/03 06:45:07;;;;;;;11.48;6.35;;;-1.10;99.90;;;;;;4914068;29;20214;-72
2023/12/03 06:47:34;;;;;;;8.32;7.60;;;-1.20;99.90;;;;;;4914019;29;20210;-72
2023/12/03 06:50:00;;;;;;;11.13;5.65;;;-1.10;99.90;;;;;;4915588;29;20215;-72
2023/12/03 06:52:27;;;;;;;7.22;5.38;;;-1.10;99.90;;;;;;4914437;29;20226;-72
2023/12/03 06:54:54;;;;;;;6.20;5.60;;;-1.10;99.90;;;;;;4912058;29;20234;-72
2023/12/03 06:57:20;;;;;;;8.00;7.00;;;-1.10;99.90;;;;;;4915314;29;20233;-72
2023/12/03 06:59:47;;;;;;;10.30;5.13;;;-1.10;99.90;;;;;;4915263;29;20530;-71
2023/12/03 07:02:15;;;;;;;11.65;7.28;;;-1.10;99.90;;;;;;4911746;29;20746;-71
2023/12/03 07:04:42;;;;;;;10.43;6.97;;;-1.10;99.90;;;;;;4912211;29;20206;-71
2023/12/03 07:07:08;;;;;;;9.88;6.63;;;-1.10;99.90;;;;;;4912911;29;20226;-71
2023/12/03 07:09:35;;;;;;;10.45;6.90;;;-1.20;99.90;;;;;;4912865;29;20218;-71
2023/12/03 07:12:02;;;;;;;12.70;7.78;;;-1.10;99.90;;;;;;4912697;29;20241;-71
2023/12/03 07:14:29;;;;;;;16.83;8.95;;;-1.10;99.90;;;;;;4911346;29;20233;-72
2023/12/03 07:16:56;;;;;;;13.60;8.52;;;-1.20;99.90;;;;;;4913527;29;20234;-72
2023/12/03 07:19:24;;;;;;;17.55;8.07;;;-1.10;99.90;;;;;;4914723;29;20218;-72
2023/12/03 07:21:50;;;;;;;16.35;8.77;;;-1.10;99.90;;;;;;4914190;29;20609;-71
2023/12/03 07:24:17;;;;;;;9.85;7.55;;;-1.10;99.90;;;;;;4913358;29;20203;-71
2023/12/03 07:26:44;;;;;;;20.38;8.10;;;-1.10;99.90;;;;;;4914296;29;20665;-71
2023/12/03 07:29:11;;;;;;;16.70;8.57;;;-1.10;99.90;;;;;;4913807;29;20234;-71
2023/12/03 07:31:38;;;;;;;7.65;4.20;;;-1.10;99.90;;;;;;4910377;29;20322;-71
2023/12/03 07:34:04;;;;;;;10.20;4.90;;;-1.10;99.90;;;;;;4906843;29;20220;-70
2023/12/03 07:36:32;;;;;;;5.25;4.72;;;-1.10;99.90;;;;;;4907355;29;20243;-70
2023/12/03 07:38:59;;;;;;;5.43;4.93;;;-1.10;99.90;;;;;;4911527;29;20206;-70
2023/12/03 07:41:26;;;;;;;15.38;4.88;;;-1.10;99.90;;;;;;4914214;29;20226;-70
2023/12/03 07:43:52;;;;;;;8.57;5.35;;;-1.10;99.90;;;;;;4911210;29;20214;-70
2023/12/03 07:46:19;;;;;;;9.98;5.25;;;-1.00;99.90;;;;;;4906638;29;20207;-71
2023/12/03 07:48:46;;;;;;;4.88;4.45;;;-1.10;99.90;;;;;;4911584;29;20203;-70
2023/12/03 07:51:13;;;;;;;9.95;6.43;;;-1.10;99.90;;;;;;4913411;29;20226;-71
2023/12/03 07:53:41;;;;;;;7.22;6.25;;;-1.10;99.90;;;;;;4913674;29;20210;-71
2023/12/03 07:56:09;;;;;;;8.15;5.15;;;-1.10;99.90;;;;;;4911910;29;20230;-70
2023/12/03 07:58:36;;;;;;;13.35;4.43;;;-1.00;99.90;;;;;;4910805;29;20207;-71
2023/12/03 08:01:05;;;;;;;8.07;5.25;;;-1.10;99.90;;;;;;4911937;29;20239;-72
2023/12/03 08:03:31;;;;;;;5.40;5.00;;;-1.10;99.90;;;;;;4912024;29;20246;-71
2023/12/03 08:05:59;;;;;;;6.07;4.25;;;-1.10;99.90;;;;;;4911997;29;20206;-72
2023/12/03 08:08:25;;;;;;;11.43;6.00;;;-1.10;99.90;;;;;;4913226;29;20210;-72
2023/12/03 08:10:53;;;;;;;7.80;4.22;;;-1.00;99.90;;;;;;4909411;29;20238;-72
2023/12/03 08:13:20;;;;;;;7.30;5.00;;;-1.10;99.90;;;;;;4921773;29;20217;-71
2023/12/03 08:15:47;;;;;;;6.28;4.63;;;-1.10;99.90;;;;;;4911596;29;20230;-71
2023/12/03 08:18:13;;;;;;;7.47;6.13;;;-1.10;99.90;;;;;;4915032;29;20211;-71
2023/12/03 08:20:40;;;;;;;6.88;4.95;;;-1.20;99.90;;;;;;4912851;29;20242;-71
2023/12/03 08:23:07;;;;;;;13.40;7.55;;;-1.20;99.90;;;;;;4912040;29;20222;-71
2023/12/03 08:25:33;;;;;;;11.73;4.80;;;-1.20;99.90;;;;;;4912015;29;20689;-69
2023/12/03 08:28:02;;;;;;;11.73;8.27;;;-1.10;99.90;;;;;;4913125;29;20233;-70
2023/12/03 08:30:29;;;;;;;11.02;7.15;;;-1.10;99.90;;;;;;4913448;29;20210;-69
2023/12/03 08:32:56;;;;;;;6.22;4.90;;;-1.10;99.90;;;;;;4911743;29;20225;-71
2023/12/03 08:35:23;;;;;;;7.50;4.93;;;-1.10;99.90;;;;;;4912305;29;20333;-71
2023/12/03 08:37:49;;;;;;;6.40;5.18;;;-1.10;99.90;;;;;;4912010;29;20222;-71
2023/12/03 08:40:16;;;;;;;12.10;4.93;;;-1.10;99.90;;;;;;4912487;29;20217;-71
2023/12/03 08:42:44;;;;;;;14.45;6.60;;;-1.10;99.90;;;;;;4914359;29;20214;-71
2023/12/03 08:45:12;;;;;;;11.30;7.45;;;-1.10;99.90;;;;;;4914546;29;20229;-71
2023/12/03 08:47:39;;;;;;;9.88;7.22;;;-1.10;99.90;;;;;;4916376;29;20585;-71
2023/12/03 08:50:07;;;;;;;12.30;5.38;;;-1.00;99.90;;;;;;4916423;29;20650;-71
2023/12/03 08:52:34;;;;;;;8.25;6.13;;;-1.00;99.90;;;;;;4915429;29;20222;-70
2023/12/03 08:55:02;;;;;;;15.60;7.00;;;-0.90;99.90;;;;;;4915274;29;20234;-71
2023/12/03 08:57:29;;;;;;;16.48;6.80;;;-0.80;99.90;;;;;;4915267;29;20584;-71
2023/12/03 08:59:56;;;;;;;13.98;6.35;;;-0.90;99.90;;;;;;4915504;29;20219;-71
2023/12/03 09:02:24;;;;;;;9.07;7.05;;;-0.80;99.90;;;;;;4913508;29;21234;-71
2023/12/03 09:04:51;;;;;;;8.35;5.00;;;-0.80;99.90;;;;;;4911021;29;20210;-71
2023/12/03 09:07:18;;;;;;;15.57;8.88;;;-0.70;99.90;;;;;;4914587;29;20261;-71
2023/12/03 09:09:45;;;;;;;11.25;6.55;;;-0.70;99.90;;;;;;4914661;29;20339;-71
2023/12/03 09:12:12;;;;;;;8.13;6.25;;;-0.60;99.90;;;;;;4913921;29;20309;-71
2023/12/03 09:14:39;;;;;;;10.65;6.00;;;-0.60;99.90;;;;;;4912366;29;20210;-71
2023/12/03 09:17:05;;;;;;;10.88;7.25;;;-0.50;99.90;;;;;;4913073;29;20214;-71
2023/12/03 09:19:33;;;;;;;11.80;7.78;;;-0.50;99.90;;;;;;4916552;29;20218;-71
2023/12/03 09:22:00;;;;;;;13.95;7.82;;;-0.50;99.90;;;;;;4914284;29;20238;-71
2023/12/03 09:24:26;;;;;;;13.68;7.28;;;-0.40;99.90;;;;;;4915444;29;20560;-71
2023/12/03 09:26:53;;;;;;;15.77;8.82;;;-0.30;99.90;;;;;;4915453;29;20218;-71
2023/12/03 09:29:20;;;;;;;11.13;7.47;;;-0.30;99.90;;;;;;4915696;29;20214;-71
2023/12/03 09:31:47;;;;;;;15.65;5.47;;;-0.30;99.90;;;;;;4915359;29;20229;-71
2023/12/03 09:34:13;;;;;;;15.32;7.95;;;-0.20;99.90;;;;;;4908188;29;20564;-71
2023/12/03 09:36:41;;;;;;;12.00;6.80;;;-0.20;99.90;;;;;;4915036;29;20597;-71
2023/12/03 09:39:08;;;;;;;7.93;5.38;;;-0.10;99.90;;;;;;4915222;29;20214;-71
2023/12/03 09:41:39;;;;;;;10.15;6.13;;;-0.10;99.90;;;;;;4911745;29;20283;-71
2023/12/03 09:44:14;;;;;;;8.63;5.68;;;-0.10;99.90;;;;;;4915637;29;20724;-71
2023/12/03 09:46:42;;;;;;;14.30;6.90;;;-0.10;99.90;;;;;;4914470;29;20253;-72
2023/12/03 09:49:11;;;;;;;11.43;7.30;;;0.00;99.90;;;;;;4915592;29;20332;-71
2023/12/03 09:51:41;;;;;;;14.10;9.73;;;0.00;99.90;;;;;;4916561;29;20227;-72
2023/12/03 09:54:09;;;;;;;10.05;6.45;;;0.00;99.90;;;;;;4915078;29;20210;-72
2023/12/03 09:56:37;;;;;;;12.77;10.30;;;-0.10;99.90;;;;;;4916746;29;20230;-71
2023/12/03 09:59:05;;;;;;;11.82;6.07;;;-0.10;99.90;;;;;;4916351;29;20222;-71
2023/12/03 10:01:34;;;;;;;13.45;6.30;;;-0.10;99.90;;;;;;4915656;29;20321;-71
2023/12/03 10:04:01;;;;;;;8.80;5.82;;;0.00;99.90;;;;;;4916751;29;20588;-71
2023/12/03 10:06:29;;;;;;;9.15;6.75;;;0.00;99.90;;;;;;4914189;29;20214;-71
2023/12/03 10:08:57;;;;;;;18.33;9.40;;;0.10;99.90;;;;;;4915182;29;20214;-70
2023/12/03 10:11:26;;;;;;;10.18;6.38;;;0.20;99.90;;;;;;4909358;29;20235;-72
2023/12/03 10:13:56;;;;;;;10.13;6.82;;;0.20;99.90;;;;;;4915061;29;20768;-71
2023/12/03 10:16:23;;;;;;;12.52;7.75;;;0.20;99.90;;;;;;4912325;29;20228;-71
2023/12/03 10:18:51;;;;;;;12.45;7.07;;;0.20;99.90;;;;;;4911943;29;20218;-71
2023/12/03 10:21:17;;;;;;;7.78;5.40;;;0.20;99.90;;;;;;4911292;29;20261;-71
2023/12/03 10:23:58;;;;;;;14.98;6.57;;;0.30;99.90;;;;;;4909222;29;20705;-71
2023/12/03 10:26:25;;;;;;;12.63;6.57;;;0.30;99.90;;;;;;4910137;29;20289;-72
2023/12/03 10:28:52;;;;;;;10.27;6.95;;;0.30;99.90;;;;;;4910521;29;20586;-72
2023/12/03 10:31:19;;;;;;;15.13;9.27;;;0.30;99.90;;;;;;4915411;29;20272;-71
2023/12/03 10:33:46;;;;;;;14.40;8.32;;;0.40;99.90;;;;;;4914141;29;20210;-72
2023/12/03 10:36:14;;;;;;;12.90;6.97;;;0.40;99.90;;;;;;4914980;29;20234;-72
2023/12/03 10:38:41;;;;;;;11.77;7.30;;;0.40;99.90;;;;;;4911433;29;20666;-72
2023/12/03 10:41:13;;;;;;;14.20;7.57;;;0.50;99.90;;;;;;4913454;29;20263;-72
2023/12/03 10:43:42;;;;;;;14.23;6.97;;;0.50;99.90;;;;;;4915084;29;20234;-72
2023/12/03 10:46:10;;;;;;;17.95;7.03;;;0.50;99.90;;;;;;4913120;29;20207;-72
2023/12/03 10:48:38;;;;;;;14.80;9.15;;;0.50;99.90;;;;;;4915278;29;20575;-71
2023/12/03 10:51:07;;;;;;;12.75;7.03;;;0.50;99.90;;;;;;4913450;29;20310;-71
2023/12/03 10:53:34;;;;;;;15.00;6.65;;;0.50;99.90;;;;;;4915091;29;20214;-71
2023/12/03 10:56:02;;;;;;;12.48;7.10;;;0.50;99.90;;;;;;4914763;29;20230;-71
2023/12/03 10:58:32;;;;;;;17.88;10.68;;;0.50;99.90;;;;;;4913141;29;20210;-72
2023/12/03 11:01:02;;;;;;;14.02;7.35;;;0.50;99.90;;;;;;4915096;29;20758;-72
2023/12/03 11:03:37;;;;;;;14.73;7.60;;;0.50;99.90;;;;;;4908510;29;20654;-72
2023/12/03 11:06:07;;;;;;;9.57;7.93;;;0.50;99.90;;;;;;4912214;29;20206;-72
2023/12/03 11:08:34;;;;;;;18.85;9.55;;;0.50;99.90;;;;;;4911716;29;20202;-72
2023/12/03 11:11:01;;;;;;;7.97;7.00;;;0.50;99.90;;;;;;4913991;29;20257;-72
2023/12/03 11:13:28;;;;;;;18.92;9.75;;;0.50;99.90;;;;;;4907143;29;20211;-72
2023/12/03 11:15:58;;;;;;;21.02;8.63;;;0.50;99.90;;;;;;4910737;29;20236;-72
2023/12/03 11:18:26;;;;;;;14.65;7.68;;;0.50;99.90;;;;;;4912919;29;20735;-72
2023/12/03 11:20:59;;;;;;;17.70;13.20;;;0.50;99.90;;;;;;4911476;29;20253;-72
2023/12/03 11:23:44;;;;;;;15.82;7.60;;;0.60;99.90;;;;;;4913009;29;20217;-72
2023/12/03 11:26:13;;;;;;;13.63;9.23;;;0.50;99.90;;;;;;4914493;29;20229;-72
2023/12/03 11:28:51;;;;;;;20.52;12.95;;;0.50;99.90;;;;;;4913300;29;20586;-72
2023/12/03 11:31:19;;;;;;;14.93;8.95;;;0.50;99.90;;;;;;4913801;29;20261;-73
2023/12/03 11:33:51;;;;;;;14.05;7.97;;;0.50;99.90;;;;;;4912882;29;20657;-73
2023/12/03 11:36:18;;;;;;;12.90;8.05;;;0.50;99.90;;;;;;4912805;29;20285;-73
2023/12/03 11:38:47;;;;;;;12.18;9.05;;;0.50;99.90;;;;;;4905266;29;20293;-71
2023/12/03 11:41:14;;;;;;;19.92;11.50;;;0.40;99.90;;;;;;4912456;29;20234;-71
2023/12/03 11:43:40;;;;;;;20.60;11.25;;;0.50;99.90;;;;;;4912996;29;20210;-71
2023/12/03 11:46:07;;;;;;;13.98;8.80;;;0.50;99.90;;;;;;4913462;29;20203;-71
2023/12/03 11:48:38;;;;;;;18.17;10.52;;;0.50;99.90;;;;;;4912613;29;20211;-72
2023/12/03 11:51:06;;;;;;;22.23;12.30;;;0.50;99.90;;;;;;4911019;29;20575;-71
2023/12/03 11:53:43;;;;;;;14.40;10.63;;;0.60;99.90;;;;;;4912435;29;20248;-71
2023/12/03 11:56:10;;;;;;;17.48;8.43;;;0.60;99.90;;;;;;4912562;29;20226;-72
2023/12/03 11:58:37;;;;;;;19.33;11.35;;;0.60;99.90;;;;;;4912800;29;20225;-71
2023/12/03 12:01:03;;;;;;;13.48;8.77;;;0.60;99.90;;;;;;4913525;29;20570;-71
2023/12/03 12:03:30;;;;;;;19.05;10.00;;;0.60;99.90;;;;;;4913274;29;20207;-71
2023/12/03 12:05:58;;;;;;;15.40;9.30;;;0.60;99.90;;;;;;4915271;29;20215;-74
2023/12/03 12:08:25;;;;;;;21.13;10.63;;;0.60;99.90;;;;;;4920649;29;20226;-74
2023/12/03 12:10:52;;;;;;;14.70;9.35;;;0.70;99.90;;;;;;4920065;29;20230;-71
2023/12/03 12:13:19;;;;;;;23.25;11.63;;;0.70;99.90;;;;;;4918098;29;20210;-73
2023/12/03 12:15:47;;;;;;;16.83;10.05;;;0.80;99.90;;;;;;4910945;29;20282;-73
2023/12/03 12:18:14;;;;;;;18.20;10.63;;;0.90;99.90;;;;;;4917090;29;20206;-73
2023/12/03 12:20:42;;;;;;;20.05;11.68;;;1.00;99.90;;;;;;4920901;29;20233;-74
2023/12/03 12:23:10;;;;;;;18.58;9.88;;;1.10;99.90;;;;;;4916295;29;20274;-73
2023/12/03 12:25:37;;;;;;;18.10;7.90;;;1.10;99.90;;;;;;4916909;29;20207;-72
2023/12/03 12:28:05;;;;;;;11.48;8.10;;;1.10;99.90;;;;;;4916314;29;20225;-73
2023/12/03 12:30:33;;;;;;;11.02;8.77;;;1.20;99.90;;;;;;4920311;29;20270;-73
2023/12/03 12:33:02;;;;;;;17.33;8.95;;;1.20;99.90;;;;;;4922407;29;20253;-72
2023/12/03 12:35:29;;;;;;;18.77;10.10;;;1.20;99.90;;;;;;4922879;29;20210;-73
2023/12/03 12:38:02;;;;;;;19.88;8.75;;;1.20;99.90;;;;;;4922117;29;20212;-73
2023/12/03 12:40:31;;;;;;;9.95;7.25;;;1.30;99.90;;;;;;4919696;29;20215;-72
2023/12/03 12:43:08;;;;;;;12.38;7.45;;;1.40;99.90;;;;;;4919961;29;20660;-73
2023/12/03 12:45:36;;;;;;;16.33;10.98;;;1.30;99.90;;;;;;4919165;29;20214;-71
2023/12/03 12:48:03;;;;;;;10.52;8.82;;;1.30;99.90;;;;;;4920017;29;20650;-72
2023/12/03 12:50:34;;;;;;;11.90;7.85;;;1.20;99.90;;;;;;4920536;29;20229;-73
2023/12/03 12:53:02;;;;;;;17.92;9.90;;;1.10;99.90;;;;;;4921144;29;20234;-73
2023/12/03 12:55:31;;;;;;;18.85;9.73;;;1.10;99.90;;;;;;4920447;29;20211;-74
2023/12/03 12:57:59;;;;;;;14.45;7.32;;;1.00;99.90;;;;;;4919227;29;20221;-72
2023/12/03 13:00:26;;;;;;;10.65;7.22;;;1.00;99.90;;;;;;4919665;29;20211;-74
2023/12/03 13:02:53;;;;;;;15.63;6.93;;;0.90;99.90;;;;;;4916037;29;20215;-73
2023/12/03 13:05:21;;;;;;;12.70;8.77;;;0.80;99.90;;;;;;4920082;29;20277;-73
2023/12/03 13:07:48;;;;;;;14.25;7.82;;;0.80;99.90;;;;;;4919227;29;20211;-73
2023/12/03 13:10:14;;;;;;;17.80;11.10;;;0.80;99.90;;;;;;4920695;29;20298;-73
2023/12/03 13:12:43;;;;;;;17.00;10.63;;;0.80;99.90;;;;;;4920332;29;20217;-74
2023/12/03 13:15:12;;;;;;;13.30;10.35;;;0.70;99.90;;;;;;4918127;29;20218;-71
2023/12/03 13:17:46;;;;;;;15.32;8.98;;;0.70;99.90;;;;;;4913430;29;20229;-73
2023/12/03 13:20:13;;;;;;;20.98;9.98;;;0.60;99.90;;;;;;4919178;29;20221;-72
2023/12/03 13:22:40;;;;;;;16.20;9.00;;;0.60;99.90;;;;;;4918492;29;20754;-72
2023/12/03 13:25:09;;;;;;;15.32;11.02;;;0.60;99.90;;;;;;4921851;29;20210;-74
2023/12/03 13:27:36;;;;;;;8.70;7.65;;;0.60;99.90;;;;;;4920584;29;20258;-72
2023/12/03 13:30:05;;;;;;;14.45;8.00;;;0.50;99.90;;;;;;4917991;29;20302;-73
2023/12/03 13:32:33;;;;;;;13.25;8.05;;;0.50;99.90;;;;;;4915533;29;20238;-72
2023/12/03 13:35:00;;;;;;;8.60;7.45;;;0.50;99.90;;;;;;4912543;29;20214;-71
2023/12/03 13:37:27;;;;;;;13.82;8.60;;;0.50;99.90;;;;;;4914306;29;20227;-72
2023/12/03 13:39:54;;;;;;;14.57;6.82;;;0.50;99.90;;;;;;4914418;29;20210;-72
2023/12/03 13:42:21;;;;;;;12.07;7.38;;;0.50;99.90;;;;;;4915858;29;20236;-72
2023/12/03 13:44:47;;;;;;;11.88;9.02;;;0.50;99.90;;;;;;4914995;29;20694;-72
2023/12/03 13:47:16;;;;;;;18.25;9.43;;;0.50;99.90;;;;;;4913569;29;20211;-73
2023/12/03 13:49:43;;;;;;;15.35;8.77;;;0.50;99.90;;;;;;4915798;29;20203;-72
2023/12/03 13:52:09;;;;;;;16.95;8.68;;;0.50;99.90;;;;;;4915956;29;20706;-72
2023/12/03 13:54:36;;;;;;;9.20;7.05;;;0.50;99.90;;;;;;4916235;29;20207;-73
2023/12/03 13:57:03;;;;;;;14.07;8.55;;;0.50;99.90;;;;;;4915196;29;20231;-73
2023/12/03 13:59:30;;;;;;;8.57;7.85;;;0.50;99.90;;;;;;4915902;29;20670;-73
2023/12/03 14:01:56;;;;;;;14.38;8.52;;;0.50;99.90;;;;;;4916020;29;20246;-73
2023/12/03 14:04:24;;;;;;;20.35;10.63;;;0.60;99.90;;;;;;4916760;29;20214;-72
2023/12/03 14:06:51;;;;;;;11.85;8.65;;;0.60;99.90;;;;;;4914841;29;20222;-72
2023/12/03 14:09:18;;;;;;;11.80;9.90;;;0.70;99.90;;;;;;4913094;29;20223;-72
2023/12/03 14:11:45;;;;;;;13.90;9.30;;;0.70;99.90;;;;;;4916654;29;20234;-73
2023/12/03 14:14:12;;;;;;;17.20;8.13;;;0.70;99.90;;;;;;4916080;29;20221;-73
2023/12/03 14:16:39;;;;;;;11.95;7.93;;;0.70;99.90;;;;;;4913336;29;20317;-73
2023/12/03 14:19:05;;;;;;;16.27;8.60;;;0.70;99.90;;;;;;4917461;29;20207;-73
2023/12/03 14:21:33;;;;;;;17.02;9.77;;;0.70;99.90;;;;;;4928448;29;20234;-73
2023/12/03 14:24:00;;;;;;;18.40;13.38;;;0.60;99.90;;;;;;4920365;29;20224;-73
2023/12/03 14:26:27;;;;;;;24.05;12.98;;;0.60;99.90;;;;;;4925538;29;20215;-73
2023/12/03 14:28:53;;;;;;;10.60;7.65;;;0.50;99.90;;;;;;4922249;29;20215;-73
2023/12/03 14:31:20;;;;;;;13.15;8.98;;;0.50;99.90;;;;;;4922560;29;20243;-72
2023/12/03 14:33:47;;;;;;;8.93;6.55;;;0.50;99.90;;;;;;4921873;29;20225;-72
2023/12/03 14:36:14;;;;;;;10.57;7.03;;;0.40;99.90;;;;;;4919010;29;20218;-73
2023/12/03 14:38:42;;;;;;;22.27;8.15;;;0.40;99.90;;;;;;4915665;29;20234;-73
2023/12/03 14:41:08;;;;;;;17.27;8.85;;;0.40;99.90;;;;;;4920448;29;20231;-73
2023/12/03 14:43:35;;;;;;;15.55;9.25;;;0.30;99.90;;;;;;4919040;29;20211;-72
2023/12/03 14:46:02;;;;;;;15.20;8.48;;;0.30;99.90;;;;;;4920379;29;20220;-73
2023/12/03 14:48:28;;;;;;;12.05;7.20;;;0.30;99.90;;;;;;4925210;29;20238;-72
2023/12/03 14:50:55;;;;;;;12.27;7.32;;;0.20;99.90;;;;;;4924639;29;20257;-72
2023/12/03 14:53:21;;;;;;;11.40;6.90;;;0.20;99.90;;;;;;4919273;29;20346;-71
2023/12/03 14:55:49;;;;;;;8.80;6.47;;;0.20;99.90;;;;;;4915051;29;20297;-72
2023/12/03 14:58:16;;;;;;;21.90;13.50;;;0.20;99.90;;;;;;4915119;29;20993;-72
2023/12/03 15:00:44;;;;;;;20.75;14.80;;;0.20;99.90;;;;;;4914925;29;20239;-73
2023/12/03 15:03:11;;;;;;;10.80;9.68;;;0.10;99.90;;;;;;4913590;29;20317;-72
2023/12/03 15:05:39;;;;;;;12.25;9.48;;;0.10;99.90;;;;;;4913560;29;20206;-72
2023/12/03 15:08:06;;;;;;;10.07;7.85;;;0.10;99.90;;;;;;4913738;29;20226;-72
2023/12/03 15:10:33;;;;;;;18.25;10.57;;;0.10;99.90;;;;;;4912463;29;20238;-72
2023/12/03 15:13:01;;;;;;;37.85;20.88;;;0.00;99.90;;;;;;4914581;29;21755;-72
2023/12/03 15:15:27;;;;;;;16.50;11.32;;;0.00;99.90;;;;;;4911759;29;20214;-71
2023/12/03 15:17:54;;;;;;;15.65;11.00;;;0.00;99.90;;;;;;4914604;29;20234;-71
2023/12/03 15:20:21;;;;;;;14.70;8.98;;;-0.10;99.90;;;;;;4913252;29;20665;-71
2023/12/03 15:22:47;;;;;;;26.13;13.10;;;-0.10;99.90;;;;;;4914131;29;20219;-72
2023/12/03 15:25:15;;;;;;;17.33;11.35;;;-0.10;99.90;;;;;;4912858;29;20234;-71
2023/12/03 15:27:42;;;;;;;20.83;16.05;;;-0.10;99.90;;;;;;4913781;29;20207;-71
2023/12/03 15:30:11;;;;;;;23.48;13.30;;;-0.10;99.90;;;;;;4914226;29;20214;-71
2023/12/03 15:32:38;;;;;;;32.95;18.05;;;0.00;99.90;;;;;;4913670;29;20238;-71
2023/12/03 15:35:05;;;;;;;25.25;13.30;;;0.00;99.90;;;;;;4912694;29;20558;-73
2023/12/03 15:37:32;;;;;;;27.02;16.33;;;0.00;99.90;;;;;;4911869;29;20701;-72
2023/12/03 15:39:58;;;;;;;13.23;11.82;;;0.00;99.90;;;;;;4912940;29;20211;-73
2023/12/03 15:42:25;;;;;;;20.63;12.38;;;0.00;99.90;;;;;;4911435;29;20334;-73
2023/12/03 15:44:52;;;;;;;15.57;10.20;;;0.10;99.90;;;;;;4912041;29;20218;-72
2023/12/03 15:47:20;;;;;;;15.77;9.70;;;0.10;99.90;;;;;;4912310;29;20217;-72
2023/12/03 15:49:46;;;;;;;26.95;14.50;;;0.10;99.90;;;;;;4909511;29;20226;-72
2023/12/03 15:52:13;;;;;;;33.03;17.27;;;0.20;99.90;;;;;;4912878;29;20238;-72
2023/12/03 15:54:42;;;;;;;23.35;11.80;;;0.20;99.90;;;;;;4909107;29;20210;-72
2023/12/03 15:57:09;;;;;;;29.60;16.42;;;0.20;99.90;;;;;;4909999;29;20654;-73
2023/12/03 15:59:35;;;;;;;14.88;11.75;;;0.30;99.90;;;;;;4912715;29;20262;-73
2023/12/03 16:02:04;;;;;;;21.42;16.92;;;0.40;99.90;;;;;;4911975;29;20265;-73
2023/12/03 16:04:32;;;;;;;30.35;17.75;;;0.40;99.90;;;;;;4911859;29;20218;-73
2023/12/03 16:06:59;;;;;;;25.13;18.60;;;0.40;99.90;;;;;;4911625;29;20207;-74
2023/12/03 16:09:25;;;;;;;26.25;17.83;;;0.40;99.90;;;;;;4912732;29;20211;-72
2023/12/03 16:11:53;;;;;;;37.28;19.52;;;0.50;99.90;;;;;;4913862;29;20227;-73
2023/12/03 16:14:20;;;;;;;39.80;23.27;;;0.50;99.90;;;;;;4910755;29;20203;-72
2023/12/03 16:16:47;;;;;;;21.35;15.52;;;0.50;99.90;;;;;;4908490;29;20214;-73
2023/12/03 16:19:14;;;;;;;22.80;14.25;;;0.50;99.90;;;;;;4911526;29;20214;-72
2023/12/03 16:21:42;;;;;;;17.83;11.80;;;0.50;99.90;;;;;;4913291;29;20298;-71
2023/12/03 16:24:11;;;;;;;22.27;14.50;;;0.60;99.90;;;;;;4910922;29;20207;-71
2023/12/03 16:26:38;;;;;;;23.08;16.95;;;0.60;99.90;;;;;;4909851;29;20206;-71
2023/12/03 16:29:05;;;;;;;15.05;11.18;;;0.60;99.90;;;;;;4906872;29;22381;-72
2023/12/03 16:31:32;;;;;;;22.70;14.43;;;0.60;99.90;;;;;;4911103;29;20241;-71
2023/12/03 16:33:59;;;;;;;14.10;11.23;;;0.70;99.90;;;;;;4911518;29;20214;-71
2023/12/03 16:36:25;;;;;;;15.73;11.30;;;0.70;99.90;;;;;;4912635;29;20202;-71
2023/12/03 16:38:53;;;;;;;18.35;10.25;;;0.70;99.90;;;;;;4910608;29;20801;-71
2023/12/03 16:41:20;;;;;;;12.80;9.57;;;0.70;99.90;;;;;;4912029;29;20234;-71
2023/12/03 16:43:46;;;;;;;16.35;10.60;;;0.70;99.90;;;;;;4912146;29;20568;-71
2023/12/03 16:46:13;;;;;;;12.70;9.23;;;0.80;99.90;;;;;;4912938;29;20587;-71
2023/12/03 16:48:40;;;;;;;19.88;10.18;;;0.80;99.90;;;;;;4911518;29;20206;-71
2023/12/03 16:51:07;;;;;;;21.80;8.98;;;0.80;99.90;;;;;;4910885;29;20242;-73
2023/12/03 16:53:34;;;;;;;19.83;12.32;;;0.80;99.90;;;;;;4911188;29;20211;-73
2023/12/03 16:56:02;;;;;;;15.73;9.93;;;0.80;99.90;;;;;;4912011;29;20574;-73
2023/12/03 16:58:29;;;;;;;7.57;6.57;;;0.80;99.90;;;;;;4914131;29;20235;-73
2023/12/03 17:00:55;;;;;;;13.60;8.57;;;0.80;99.90;;;;;;4916153;29;20242;-73
2023/12/03 17:03:22;;;;;;;14.20;9.20;;;0.80;99.90;;;;;;4913523;29;20975;-73
2023/12/03 17:05:50;;;;;;;14.98;9.70;;;0.80;99.90;;;;;;4913956;29;20210;-73
2023/12/03 17:08:17;;;;;;;13.85;7.07;;;0.80;99.90;;;;;;4914790;29;20217;-74
2023/12/03 17:10:44;;;;;;;15.45;9.27;;;0.80;99.90;;;;;;4915600;29;20287;-73
2023/12/03 17:13:12;;;;;;;9.38;8.00;;;0.80;99.90;;;;;;4915737;29;20210;-73
2023/12/03 17:15:39;;;;;;;10.90;7.68;;;0.80;99.90;;;;;;4916407;29;20245;-73
2023/12/03 17:18:05;;;;;;;19.35;9.20;;;0.90;99.90;;;;;;4916480;29;20336;-72
2023/12/03 17:20:33;;;;;;;12.70;9.18;;;0.90;99.90;;;;;;4914674;29;20247;-72
2023/12/03 17:23:00;;;;;;;13.32;8.60;;;0.90;99.90;;;;;;4916589;29;20598;-74
2023/12/03 17:25:27;;;;;;;13.43;8.95;;;0.90;99.90;;;;;;4914968;29;20210;-72
2023/12/03 17:27:54;;;;;;;19.60;13.40;;;0.90;99.90;;;;;;4914240;29;20211;-72
2023/12/03 17:30:22;;;;;;;28.10;16.42;;;0.90;99.90;;;;;;4915782;29;20218;-73
2023/12/03 17:32:49;;;;;;;19.42;10.77;;;0.90;99.90;;;;;;4915174;29;20210;-73
2023/12/03 17:35:16;;;;;;;19.25;10.02;;;0.90;99.90;;;;;;4916191;29;20215;-73
2023/12/03 17:37:43;;;;;;;17.77;9.57;;;1.00;99.90;;;;;;4915826;29;20306;-72
2023/12/03 17:40:11;;;;;;;18.67;11.35;;;0.90;99.90;;;;;;4913232;29;20285;-73
2023/12/03 17:42:38;;;;;;;17.15;9.32;;;0.90;99.90;;;;;;4914239;29;20236;-73
2023/12/03 17:45:06;;;;;;;16.20;9.32;;;0.90;99.90;;;;;;4915365;29;20206;-74